Time,TemperatureF,DewpointF,PressureIn,WindDirection,WindDirectionDegrees,WindSpeedMPH,WindSpeedGustMPH,Humidity,HourlyPrecipIn,Conditions,Clouds,dailyrainin,SoftwareType,DateUTC
2017-11-17 00:00:00,57.6,56.2,30.15,SSW,200,0.0,0.0,95,0.00,,,0.00,Wunderground v.1.15,2017-11-17 06:00:00,
2017-11-17 00:30:00,57.2,55.8,30.14,SSW,200,0.0,0.0,95,0.00,,,0.00,Wunderground v.1.15,2017-11-17 06:30:00,
2017-11-17 01:00:00,56.6,55.2,30.14,SSW,200,0.0,0.0,95,0.00,,,0.00,Wunderground v.1.15,2017-11-17 07:00:00,
2017-11-17 01:30:00,56.3,54.9,30.13,SSW,200,0.0,0.0,95,0.00,,,0.00,Wunderground v.1.15,2017-11-17 07:30:00,
2017-11-17 02:00:00,56.2,54.8,30.12,SSW,200,0.0,0.0,95,0.00,,,0.00,Wunderground v.1.15,2017-11-17 08:00:00,
2017-11-17 02:30:00,55.8,54.4,30.12,SSW,200,0.0,0.0,95,0.00,,,0.00,Wunderground v.1.15,2017-11-17 08:30:00,
2017-11-17 03:00:00,56.3,55.2,30.12,SSW,200,0.0,0.0,96,0.00,,,0.00,Wunderground v.1.15,2017-11-17 09:00:00,
2017-11-17 04:00:00,58.4,57.3,30.12,East,84,0.0,0.0,96,0.00,,,0.00,Wunderground v.1.15,2017-11-17 10:00:00,
2017-11-17 04:30:00,58.4,57.0,30.12,ENE,74,1.0,1.0,95,0.00,,,0.00,Wunderground v.1.15,2017-11-17 10:30:00,
2017-11-17 05:00:00,58.6,56.9,30.12,ENE,74,0.0,0.0,94,0.00,,,0.00,Wunderground v.1.15,2017-11-17 11:00:00,
2017-11-17 05:30:00,58.6,56.9,30.14,ENE,74,0.0,0.0,94,0.00,,,0.00,Wunderground v.1.15,2017-11-17 11:30:00,
2017-11-17 06:00:00,57.8,56.1,30.14,ENE,74,0.0,0.0,94,0.00,,,0.00,Wunderground v.1.15,2017-11-17 12:00:00,
2017-11-17 06:30:00,57.1,55.7,30.15,ENE,74,0.0,0.0,95,0.00,,,0.00,Wunderground v.1.15,2017-11-17 12:30:00,
2017-11-17 07:00:00,56.9,55.5,30.17,ENE,73,0.0,0.0,95,0.00,,,0.00,Wunderground v.1.15,2017-11-17 13:00:00,
2017-11-17 07:30:00,58.4,57.0,30.18,ENE,72,0.0,0.0,95,0.00,,,0.00,Wunderground v.1.15,2017-11-17 13:30:00,
2017-11-17 08:00:00,61.7,58.4,30.18,East,81,1.0,1.0,89,0.00,,,0.00,Wunderground v.1.15,2017-11-17 14:00:00,
2017-11-17 08:30:00,65.3,59.3,30.18,East,84,1.0,1.0,81,0.00,,,0.00,Wunderground v.1.15,2017-11-17 14:30:00,
2017-11-17 09:00:00,69.1,60.8,30.17,East,93,0.0,0.0,75,0.00,,,0.00,Wunderground v.1.15,2017-11-17 15:00:00,
2017-11-17 09:30:00,72.6,61.4,30.17,ESE,105,0.0,0.0,68,0.00,,,0.00,Wunderground v.1.15,2017-11-17 15:30:00,
2017-11-17 10:00:00,74.1,61.1,30.17,South,179,0.0,1.0,64,0.00,,,0.00,Wunderground v.1.15,2017-11-17 16:00:00,
2017-11-17 10:30:00,75.4,61.5,30.16,SE,136,1.0,2.0,62,0.00,,,0.00,Wunderground v.1.15,2017-11-17 16:30:00,
2017-11-17 11:00:00,76.8,61.9,30.15,South,190,2.0,2.0,60,0.00,,,0.00,Wunderground v.1.15,2017-11-17 17:00:00,
2017-11-17 11:30:00,76.3,62.3,30.14,SSW,192,2.0,5.0,62,0.00,,,0.00,Wunderground v.1.15,2017-11-17 17:30:00,
2017-11-17 12:00:00,76.7,62.7,30.12,South,173,2.0,3.0,62,0.00,,,0.00,Wunderground v.1.15,2017-11-17 18:00:00,
2017-11-17 12:30:00,76.4,63.3,30.11,South,176,2.0,2.0,64,0.00,,,0.00,Wunderground v.1.15,2017-11-17 18:30:00,
2017-11-17 13:00:00,76.7,64.5,30.09,SSE,168,1.0,3.0,66,0.00,,,0.00,Wunderground v.1.15,2017-11-17 19:00:00,
2017-11-17 13:30:00,76.4,66.3,30.09,SSE,164,2.0,2.0,71,0.00,,,0.00,Wunderground v.1.15,2017-11-17 19:30:00,
2017-11-17 14:00:00,76.5,66.0,30.08,South,190,3.0,7.0,70,0.00,,,0.00,Wunderground v.1.15,2017-11-17 20:00:00,
2017-11-17 14:30:00,76.5,66.0,30.06,SSE,156,2.0,5.0,70,0.00,,,0.00,Wunderground v.1.15,2017-11-17 20:30:00,
2017-11-17 15:00:00,76.2,65.7,30.05,South,176,2.0,3.0,70,0.00,,,0.00,Wunderground v.1.15,2017-11-17 21:00:00,
2017-11-17 15:30:00,74.6,65.0,30.05,SE,142,1.0,1.0,72,0.00,,,0.00,Wunderground v.1.15,2017-11-17 21:30:00,
2017-11-17 16:00:00,72.5,64.9,30.06,SE,132,2.0,2.0,77,0.00,,,0.00,Wunderground v.1.15,2017-11-17 22:00:00,